Bookmark and Share
Track history (hours):
 

Ds Blue Wave

Last reported at 2014-Apr-21 18:33 UTC. Time now 2014-Apr-24 19:44 UTC.
Position N 34°58' E 139°29'.

Length 129 m; draft 6 m.

Type: Cargo ship. MMSI: 636092200.

NotesDate/timePositionNaut miles runAvg speedWind from/ knotsBaromVisibWave heightAir tempDewpointWater temp
2014-Apr-21 18:33N 34°58' E 139°29'1515.1
2014-Apr-21 17:33N 35°07' E 139°43'1312.7
2014-Apr-21 16:33N 35°20' E 139°43'7 6.6
2014-Apr-21 15:31N 35°26' E 139°41'0 0.0
2014-Apr-21 14:31N 35°26' E 139°41'0 0.0
2014-Apr-21 13:31N 35°26' E 139°41'0 0.0
2014-Apr-21 12:31N 35°26' E 139°41'0 0.0
2014-Apr-21 11:31N 35°26' E 139°41'0 0.0
2014-Apr-21 10:31N 35°26' E 139°41'1 1.5
2014-Apr-21 09:33N 35°26' E 139°43'9 9.1
2014-Apr-21 08:33N 35°33' E 139°51'6 5.9
2014-Apr-21 07:31N 35°37' E 139°46'0 0.0
2014-Apr-21 06:31N 35°37' E 139°46'0 0.0
2014-Apr-21 05:22N 35°37' E 139°46'0 0.0
2014-Apr-21 04:31N 35°37' E 139°46'0 0.0
2014-Apr-21 03:07N 35°37' E 139°46'0 0.0
2014-Apr-21 02:31N 35°37' E 139°46'0 0.0
2014-Apr-21 00:25N 35°37' E 139°46'0 0.0
2014-Apr-20 23:31N 35°37' E 139°46'0 0.0
2014-Apr-20 22:33N 35°37' E 139°46'5 4.6
2014-Apr-20 21:34N 35°34' E 139°49'9 8.6
2014-Apr-20 20:33N 35°25' E 139°48'1010.1
2014-Apr-20 19:32N 35°15' E 139°47'1110.9
2014-Apr-20 18:33N 35°05' E 139°44'  
2014-Apr-18 14:22N 35°05' E 129°06'1 0.6
2014-Apr-18 12:31N 35°06' E 129°06'0 0.0
2014-Apr-18 11:31N 35°06' E 129°06'0 0.0
2014-Apr-18 10:25N 35°06' E 129°06'0 0.0
2014-Apr-18 09:31N 35°06' E 129°06'0 0.0
2014-Apr-18 07:25N 35°06' E 129°06'0 0.0
2014-Apr-18 05:23N 35°06' E 129°06'0 0.0
2014-Apr-18 04:17N 35°06' E 129°06'0 0.0
2014-Apr-18 02:23N 35°06' E 129°06'0 0.0
2014-Apr-18 01:08N 35°06' E 129°06'0 0.0
2014-Apr-17 23:30N 35°06' E 129°06'0 0.0
2014-Apr-17 22:30N 35°06' E 129°06'  
2014-Apr-14 17:33N 34°57' E 139°30'1515.0
2014-Apr-14 16:34N 35°07' E 139°43'1212.2
2014-Apr-14 15:34N 35°19' E 139°43'7 7.2
2014-Apr-14 14:33N 35°26' E 139°41'0 0.0
2014-Apr-14 13:33N 35°26' E 139°41'0 0.0
2014-Apr-14 11:33N 35°26' E 139°41'0 0.0
2014-Apr-14 10:30N 35°26' E 139°41'5 4.8
2014-Apr-14 09:34N 35°27' E 139°46'9 9.2
2014-Apr-14 08:33N 35°36' E 139°47'52410.2
2014-Apr-12 05:04N 35°05' E 129°06'1 0.5
2014-Apr-12 03:29N 35°06' E 129°06'0 0.0
2014-Apr-12 02:26N 35°06' E 129°06'0 0.0
2014-Apr-11 23:32N 35°06' E 129°06'0 0.0
2014-Apr-11 22:17N 35°06' E 129°06'0 0.0
2014-Apr-11 21:29N 35°06' E 129°06'0 0.0
2014-Apr-11 20:11N 35°06' E 129°06'0 0.0
2014-Apr-11 19:23N 35°06' E 129°06'  

Dump ship's entire track history

sailing weather and tide predictions

Ds Blue Wave — A8YK2 — position and weather